sensor_id;sensor_type;location;lat;lon;timestamp;P1;durP1;ratioP1;P2;durP2;ratioP2
73130;SDS011;64204;13.766;100.702;2024-03-23T00:54:20;20.83;;;12.15;;
73130;SDS011;64204;13.766;100.702;2024-03-23T00:56:46;25.65;;;12.32;;
73130;SDS011;64204;13.766;100.702;2024-03-23T00:59:12;22.58;;;11.68;;
73130;SDS011;64204;13.766;100.702;2024-03-23T01:01:39;19.42;;;10.73;;
73130;SDS011;64204;13.766;100.702;2024-03-23T01:04:05;20.83;;;10.48;;
73130;SDS011;64204;13.766;100.702;2024-03-23T01:06:32;25.00;;;11.68;;
73130;SDS011;64204;13.766;100.702;2024-03-23T01:08:58;24.13;;;11.27;;
73130;SDS011;64204;13.766;100.702;2024-03-23T01:11:24;21.30;;;10.32;;
73130;SDS011;64204;13.766;100.702;2024-03-23T01:13:51;21.75;;;10.73;;
73130;SDS011;64204;13.766;100.702;2024-03-23T01:16:20;21.08;;;12.07;;
73130;SDS011;64204;13.766;100.702;2024-03-23T01:18:46;22.88;;;12.10;;
73130;SDS011;64204;13.766;100.702;2024-03-23T01:21:13;20.55;;;11.23;;
73130;SDS011;64204;13.766;100.702;2024-03-23T01:23:39;25.40;;;11.25;;
73130;SDS011;64204;13.766;100.702;2024-03-23T01:26:06;21.98;;;11.23;;
73130;SDS011;64204;13.766;100.702;2024-03-23T01:28:32;21.40;;;11.13;;
73130;SDS011;64204;13.766;100.702;2024-03-23T01:30:58;22.15;;;11.38;;
73130;SDS011;64204;13.766;100.702;2024-03-23T01:33:25;16.85;;;9.55;;
73130;SDS011;64204;13.766;100.702;2024-03-23T01:35:51;20.92;;;10.63;;
73130;SDS011;64204;13.766;100.702;2024-03-23T01:38:17;17.98;;;10.20;;
73130;SDS011;64204;13.766;100.702;2024-03-23T01:40:44;16.05;;;10.27;;
73130;SDS011;64204;13.766;100.702;2024-03-23T01:43:10;21.27;;;10.35;;
73130;SDS011;64204;13.766;100.702;2024-03-23T01:45:36;19.40;;;9.70;;
73130;SDS011;64204;13.766;100.702;2024-03-23T01:48:03;20.50;;;10.02;;
73130;SDS011;64204;13.766;100.702;2024-03-23T01:50:30;19.70;;;9.48;;
73130;SDS011;64204;13.766;100.702;2024-03-23T01:53:01;17.10;;;9.50;;
73130;SDS011;64204;13.766;100.702;2024-03-23T01:55:28;19.33;;;10.13;;
73130;SDS011;64204;13.766;100.702;2024-03-23T01:57:56;15.80;;;9.93;;
73130;SDS011;64204;13.766;100.702;2024-03-23T02:00:23;19.38;;;9.48;;
73130;SDS011;64204;13.766;100.702;2024-03-23T02:02:49;14.82;;;8.85;;
73130;SDS011;64204;13.766;100.702;2024-03-23T02:05:16;15.85;;;9.50;;
73130;SDS011;64204;13.766;100.702;2024-03-23T02:07:42;14.85;;;8.77;;
73130;SDS011;64204;13.766;100.702;2024-03-23T02:10:09;17.70;;;9.95;;
73130;SDS011;64204;13.766;100.702;2024-03-23T02:12:38;17.08;;;9.93;;
73130;SDS011;64204;13.766;100.702;2024-03-23T02:15:11;16.60;;;9.88;;
73130;SDS011;64204;13.766;100.702;2024-03-23T02:17:47;14.98;;;9.07;;
73130;SDS011;64204;13.766;100.702;2024-03-23T02:20:16;16.30;;;9.32;;
73130;SDS011;64204;13.766;100.702;2024-03-23T02:22:43;16.77;;;9.50;;
73130;SDS011;64204;13.766;100.702;2024-03-23T02:25:09;16.13;;;9.43;;
73130;SDS011;64204;13.766;100.702;2024-03-23T02:27:35;16.33;;;9.63;;
73130;SDS011;64204;13.766;100.702;2024-03-23T02:30:04;15.38;;;9.20;;
73130;SDS011;64204;13.766;100.702;2024-03-23T02:32:33;16.83;;;9.98;;
73130;SDS011;64204;13.766;100.702;2024-03-23T02:35:02;13.75;;;9.60;;
73130;SDS011;64204;13.766;100.702;2024-03-23T02:37:31;13.98;;;9.23;;
73130;SDS011;64204;13.766;100.702;2024-03-23T02:39:58;16.30;;;9.57;;
73130;SDS011;64204;13.766;100.702;2024-03-23T02:42:24;14.65;;;9.50;;
73130;SDS011;64204;13.766;100.702;2024-03-23T02:44:51;15.32;;;9.70;;
73130;SDS011;64204;13.766;100.702;2024-03-23T02:47:17;15.07;;;8.95;;
73130;SDS011;64204;13.766;100.702;2024-03-23T02:49:43;18.33;;;9.52;;
73130;SDS011;64204;13.766;100.702;2024-03-23T02:52:10;16.58;;;9.95;;
73130;SDS011;64204;13.766;100.702;2024-03-23T02:54:36;16.25;;;9.52;;
73130;SDS011;64204;13.766;100.702;2024-03-23T02:57:02;17.17;;;9.70;;
73130;SDS011;64204;13.766;100.702;2024-03-23T02:59:30;16.55;;;9.48;;
73130;SDS011;64204;13.766;100.702;2024-03-23T03:01:56;14.18;;;9.15;;
73130;SDS011;64204;13.766;100.702;2024-03-23T03:04:22;14.75;;;9.80;;
73130;SDS011;64204;13.766;100.702;2024-03-23T03:06:49;14.15;;;10.02;;
73130;SDS011;64204;13.766;100.702;2024-03-23T03:09:15;15.85;;;9.55;;
73130;SDS011;64204;13.766;100.702;2024-03-23T03:11:41;17.02;;;10.27;;
73130;SDS011;64204;13.766;100.702;2024-03-23T03:14:08;13.35;;;8.90;;
73130;SDS011;64204;13.766;100.702;2024-03-23T03:16:34;14.38;;;8.85;;
73130;SDS011;64204;13.766;100.702;2024-03-23T03:19:01;15.27;;;9.77;;
73130;SDS011;64204;13.766;100.702;2024-03-23T03:21:27;17.92;;;9.68;;
73130;SDS011;64204;13.766;100.702;2024-03-23T03:23:53;13.88;;;9.68;;
73130;SDS011;64204;13.766;100.702;2024-03-23T03:26:22;18.08;;;11.10;;
73130;SDS011;64204;13.766;100.702;2024-03-23T03:28:49;12.88;;;9.85;;
73130;SDS011;64204;13.766;100.702;2024-03-23T03:31:16;13.82;;;9.75;;
73130;SDS011;64204;13.766;100.702;2024-03-23T03:33:44;15.10;;;9.80;;
73130;SDS011;64204;13.766;100.702;2024-03-23T03:36:10;14.00;;;9.52;;
73130;SDS011;64204;13.766;100.702;2024-03-23T03:38:37;15.95;;;10.35;;
73130;SDS011;64204;13.766;100.702;2024-03-23T03:41:06;16.27;;;10.02;;
73130;SDS011;64204;13.766;100.702;2024-03-23T03:43:33;14.20;;;9.85;;
73130;SDS011;64204;13.766;100.702;2024-03-23T03:46:00;14.32;;;9.93;;
73130;SDS011;64204;13.766;100.702;2024-03-23T03:48:26;18.88;;;10.02;;
73130;SDS011;64204;13.766;100.702;2024-03-23T03:50:53;13.90;;;9.50;;
73130;SDS011;64204;13.766;100.702;2024-03-23T03:53:19;13.00;;;9.88;;
73130;SDS011;64204;13.766;100.702;2024-03-23T03:55:46;15.90;;;10.25;;
73130;SDS011;64204;13.766;100.702;2024-03-23T03:58:12;14.65;;;9.80;;
73130;SDS011;64204;13.766;100.702;2024-03-23T04:00:39;16.38;;;9.98;;
73130;SDS011;64204;13.766;100.702;2024-03-23T04:03:05;19.05;;;10.27;;
73130;SDS011;64204;13.766;100.702;2024-03-23T04:05:32;16.73;;;10.35;;
73130;SDS011;64204;13.766;100.702;2024-03-23T04:07:58;15.48;;;10.70;;
73130;SDS011;64204;13.766;100.702;2024-03-23T04:10:24;17.80;;;10.43;;
73130;SDS011;64204;13.766;100.702;2024-03-23T04:12:52;14.80;;;10.15;;
73130;SDS011;64204;13.766;100.702;2024-03-23T04:15:19;14.30;;;10.63;;
73130;SDS011;64204;13.766;100.702;2024-03-23T04:17:45;16.95;;;10.98;;
73130;SDS011;64204;13.766;100.702;2024-03-23T04:20:12;15.88;;;11.25;;
73130;SDS011;64204;13.766;100.702;2024-03-23T04:22:42;18.60;;;11.85;;
73130;SDS011;64204;13.766;100.702;2024-03-23T04:25:09;17.70;;;11.95;;
73130;SDS011;64204;13.766;100.702;2024-03-23T04:27:36;17.13;;;11.88;;
73130;SDS011;64204;13.766;100.702;2024-03-23T04:30:03;24.42;;;13.10;;
73130;SDS011;64204;13.766;100.702;2024-03-23T04:32:35;18.98;;;12.45;;
73130;SDS011;64204;13.766;100.702;2024-03-23T04:35:04;21.23;;;14.15;;
73130;SDS011;64204;13.766;100.702;2024-03-23T04:37:32;18.15;;;12.93;;
73130;SDS011;64204;13.766;100.702;2024-03-23T04:39:59;19.35;;;13.43;;
73130;SDS011;64204;13.766;100.702;2024-03-23T04:42:29;20.17;;;13.05;;
73130;SDS011;64204;13.766;100.702;2024-03-23T04:44:56;21.45;;;12.32;;
73130;SDS011;64204;13.766;100.702;2024-03-23T04:47:23;17.27;;;11.80;;
73130;SDS011;64204;13.766;100.702;2024-03-23T04:49:49;19.75;;;13.02;;
73130;SDS011;64204;13.766;100.702;2024-03-23T04:52:16;17.60;;;12.77;;
73130;SDS011;64204;13.766;100.702;2024-03-23T04:54:43;15.98;;;12.15;;
73130;SDS011;64204;13.766;100.702;2024-03-23T04:57:11;16.63;;;12.73;;
73130;SDS011;64204;13.766;100.702;2024-03-23T04:59:37;18.80;;;12.57;;
73130;SDS011;64204;13.766;100.702;2024-03-23T05:02:04;17.27;;;12.02;;
73130;SDS011;64204;13.766;100.702;2024-03-23T05:04:30;15.05;;;11.40;;
73130;SDS011;64204;13.766;100.702;2024-03-23T05:06:57;18.23;;;12.13;;
73130;SDS011;64204;13.766;100.702;2024-03-23T05:09:24;20.45;;;12.98;;
73130;SDS011;64204;13.766;100.702;2024-03-23T05:11:55;18.08;;;12.48;;
73130;SDS011;64204;13.766;100.702;2024-03-23T05:14:22;21.00;;;12.82;;
73130;SDS011;64204;13.766;100.702;2024-03-23T05:16:48;18.13;;;12.93;;
73130;SDS011;64204;13.766;100.702;2024-03-23T05:19:15;18.45;;;12.45;;
73130;SDS011;64204;13.766;100.702;2024-03-23T05:21:41;16.83;;;12.52;;
73130;SDS011;64204;13.766;100.702;2024-03-23T05:24:08;18.40;;;13.18;;
73130;SDS011;64204;13.766;100.702;2024-03-23T05:26:34;18.70;;;13.27;;
73130;SDS011;64204;13.766;100.702;2024-03-23T05:29:01;18.75;;;11.90;;
73130;SDS011;64204;13.766;100.702;2024-03-23T05:31:29;16.00;;;13.07;;
73130;SDS011;64204;13.766;100.702;2024-03-23T05:36:22;17.05;;;12.23;;
73130;SDS011;64204;13.766;100.702;2024-03-23T05:38:51;18.95;;;12.10;;
73130;SDS011;64204;13.766;100.702;2024-03-23T05:41:18;18.67;;;11.77;;
73130;SDS011;64204;13.766;100.702;2024-03-23T05:43:44;17.02;;;11.90;;
73130;SDS011;64204;13.766;100.702;2024-03-23T05:46:11;16.23;;;12.75;;
73130;SDS011;64204;13.766;100.702;2024-03-23T05:48:37;17.73;;;12.30;;
73130;SDS011;64204;13.766;100.702;2024-03-23T05:51:03;18.40;;;12.40;;
73130;SDS011;64204;13.766;100.702;2024-03-23T05:53:30;17.90;;;12.68;;
73130;SDS011;64204;13.766;100.702;2024-03-23T05:56:00;19.17;;;11.25;;
73130;SDS011;64204;13.766;100.702;2024-03-23T05:58:29;16.23;;;11.77;;
73130;SDS011;64204;13.766;100.702;2024-03-23T06:00:59;20.83;;;12.35;;
73130;SDS011;64204;13.766;100.702;2024-03-23T06:03:27;17.23;;;11.68;;
73130;SDS011;64204;13.766;100.702;2024-03-23T06:05:54;17.38;;;11.80;;
73130;SDS011;64204;13.766;100.702;2024-03-23T06:08:21;18.13;;;12.25;;
73130;SDS011;64204;13.766;100.702;2024-03-23T06:10:48;18.27;;;12.15;;
73130;SDS011;64204;13.766;100.702;2024-03-23T06:13:15;17.35;;;11.82;;
73130;SDS011;64204;13.766;100.702;2024-03-23T06:15:42;16.52;;;11.60;;
73130;SDS011;64204;13.766;100.702;2024-03-23T06:18:09;15.48;;;11.27;;
73130;SDS011;64204;13.766;100.702;2024-03-23T06:20:35;17.52;;;12.27;;
73130;SDS011;64204;13.766;100.702;2024-03-23T06:23:01;18.30;;;11.75;;
73130;SDS011;64204;13.766;100.702;2024-03-23T06:25:29;18.15;;;11.95;;
73130;SDS011;64204;13.766;100.702;2024-03-23T06:27:55;18.13;;;11.60;;
73130;SDS011;64204;13.766;100.702;2024-03-23T06:32:49;17.98;;;12.10;;
73130;SDS011;64204;13.766;100.702;2024-03-23T06:35:16;18.10;;;11.30;;
73130;SDS011;64204;13.766;100.702;2024-03-23T06:37:42;17.17;;;11.35;;
73130;SDS011;64204;13.766;100.702;2024-03-23T06:40:08;16.92;;;11.90;;
73130;SDS011;64204;13.766;100.702;2024-03-23T06:42:35;17.45;;;11.32;;
73130;SDS011;64204;13.766;100.702;2024-03-23T06:45:05;20.67;;;12.35;;
73130;SDS011;64204;13.766;100.702;2024-03-23T06:47:32;16.50;;;11.30;;
73130;SDS011;64204;13.766;100.702;2024-03-23T06:50:02;20.48;;;12.60;;
73130;SDS011;64204;13.766;100.702;2024-03-23T06:52:29;19.55;;;12.63;;
73130;SDS011;64204;13.766;100.702;2024-03-23T06:54:56;16.52;;;11.82;;
73130;SDS011;64204;13.766;100.702;2024-03-23T06:57:23;19.08;;;11.80;;
73130;SDS011;64204;13.766;100.702;2024-03-23T06:59:49;16.88;;;11.80;;
73130;SDS011;64204;13.766;100.702;2024-03-23T07:02:16;18.45;;;12.57;;
73130;SDS011;64204;13.766;100.702;2024-03-23T07:04:42;21.40;;;12.40;;
73130;SDS011;64204;13.766;100.702;2024-03-23T07:07:08;20.05;;;12.65;;
73130;SDS011;64204;13.766;100.702;2024-03-23T07:09:35;17.60;;;10.98;;
73130;SDS011;64204;13.766;100.702;2024-03-23T07:12:03;17.35;;;10.68;;
73130;SDS011;64204;13.766;100.702;2024-03-23T07:14:30;16.92;;;12.07;;
73130;SDS011;64204;13.766;100.702;2024-03-23T07:16:56;20.63;;;11.95;;
73130;SDS011;64204;13.766;100.702;2024-03-23T07:19:22;17.35;;;10.95;;
73130;SDS011;64204;13.766;100.702;2024-03-23T07:21:49;15.25;;;10.75;;
73130;SDS011;64204;13.766;100.702;2024-03-23T07:24:16;18.02;;;10.80;;
73130;SDS011;64204;13.766;100.702;2024-03-23T07:26:42;18.02;;;10.73;;
73130;SDS011;64204;13.766;100.702;2024-03-23T07:29:09;16.17;;;9.57;;
73130;SDS011;64204;13.766;100.702;2024-03-23T07:31:35;18.58;;;9.50;;
73130;SDS011;64204;13.766;100.702;2024-03-23T07:34:02;16.05;;;8.93;;
73130;SDS011;64204;13.766;100.702;2024-03-23T07:36:28;13.25;;;8.65;;
73130;SDS011;64204;13.766;100.702;2024-03-23T07:38:54;13.75;;;8.25;;
73130;SDS011;64204;13.766;100.702;2024-03-23T07:41:21;13.05;;;7.68;;
73130;SDS011;64204;13.766;100.702;2024-03-23T07:43:47;13.88;;;8.10;;
73130;SDS011;64204;13.766;100.702;2024-03-23T07:46:15;15.02;;;8.73;;
73130;SDS011;64204;13.766;100.702;2024-03-23T07:48:41;13.68;;;7.90;;
73130;SDS011;64204;13.766;100.702;2024-03-23T07:53:43;11.48;;;7.47;;
73130;SDS011;64204;13.766;100.702;2024-03-23T07:56:14;13.82;;;7.97;;
73130;SDS011;64204;13.766;100.702;2024-03-23T07:58:41;12.90;;;7.43;;
73130;SDS011;64204;13.766;100.702;2024-03-23T08:01:08;16.50;;;9.07;;
73130;SDS011;64204;13.766;100.702;2024-03-23T08:03:44;12.57;;;7.78;;
73130;SDS011;64204;13.766;100.702;2024-03-23T08:08:39;15.48;;;8.30;;
73130;SDS011;64204;13.766;100.702;2024-03-23T08:11:06;13.65;;;8.05;;
73130;SDS011;64204;13.766;100.702;2024-03-23T08:13:33;12.95;;;8.15;;
73130;SDS011;64204;13.766;100.702;2024-03-23T08:16:03;15.30;;;8.43;;
73130;SDS011;64204;13.766;100.702;2024-03-23T08:18:30;14.80;;;8.57;;
73130;SDS011;64204;13.766;100.702;2024-03-23T08:20:57;14.38;;;8.40;;
73130;SDS011;64204;13.766;100.702;2024-03-23T08:23:28;14.75;;;8.60;;
73130;SDS011;64204;13.766;100.702;2024-03-23T08:26:02;11.50;;;8.35;;
73130;SDS011;64204;13.766;100.702;2024-03-23T08:28:32;15.88;;;8.75;;
73130;SDS011;64204;13.766;100.702;2024-03-23T08:31:08;17.17;;;9.68;;
73130;SDS011;64204;13.766;100.702;2024-03-23T08:33:36;16.02;;;9.73;;
73130;SDS011;64204;13.766;100.702;2024-03-23T08:36:06;19.02;;;10.35;;
73130;SDS011;64204;13.766;100.702;2024-03-23T08:38:34;16.42;;;9.93;;
73130;SDS011;64204;13.766;100.702;2024-03-23T08:41:05;17.63;;;10.82;;
73130;SDS011;64204;13.766;100.702;2024-03-23T08:43:35;18.13;;;10.13;;
73130;SDS011;64204;13.766;100.702;2024-03-23T08:48:42;15.90;;;10.38;;
73130;SDS011;64204;13.766;100.702;2024-03-23T08:51:11;16.92;;;9.73;;
73130;SDS011;64204;13.766;100.702;2024-03-23T08:53:41;18.83;;;10.27;;
73130;SDS011;64204;13.766;100.702;2024-03-23T08:56:11;18.65;;;9.98;;
73130;SDS011;64204;13.766;100.702;2024-03-23T08:58:38;19.85;;;9.90;;
73130;SDS011;64204;13.766;100.702;2024-03-23T09:03:36;14.05;;;8.93;;
73130;SDS011;64204;13.766;100.702;2024-03-23T09:06:06;14.85;;;9.07;;
73130;SDS011;64204;13.766;100.702;2024-03-23T09:08:37;17.20;;;8.65;;
73130;SDS011;64204;13.766;100.702;2024-03-23T09:11:05;17.35;;;8.98;;
73130;SDS011;64204;13.766;100.702;2024-03-23T09:13:35;15.30;;;8.93;;
73130;SDS011;64204;13.766;100.702;2024-03-23T09:16:02;13.55;;;7.88;;
73130;SDS011;64204;13.766;100.702;2024-03-23T09:18:31;15.52;;;8.50;;
73130;SDS011;64204;13.766;100.702;2024-03-23T09:20:58;17.05;;;9.27;;
73130;SDS011;64204;13.766;100.702;2024-03-23T09:23:24;19.63;;;8.77;;
73130;SDS011;64204;13.766;100.702;2024-03-23T09:25:51;14.63;;;8.57;;
73130;SDS011;64204;13.766;100.702;2024-03-23T09:28:17;15.85;;;8.60;;
73130;SDS011;64204;13.766;100.702;2024-03-23T09:30:43;21.58;;;9.48;;
73130;SDS011;64204;13.766;100.702;2024-03-23T09:33:10;15.13;;;7.88;;
73130;SDS011;64204;13.766;100.702;2024-03-23T09:35:41;16.25;;;8.82;;
73130;SDS011;64204;13.766;100.702;2024-03-23T09:38:10;17.67;;;8.25;;
73130;SDS011;64204;13.766;100.702;2024-03-23T09:40:42;15.60;;;8.00;;
73130;SDS011;64204;13.766;100.702;2024-03-23T09:43:09;15.50;;;8.82;;
73130;SDS011;64204;13.766;100.702;2024-03-23T09:45:38;17.52;;;8.60;;
73130;SDS011;64204;13.766;100.702;2024-03-23T09:48:06;21.30;;;8.93;;
73130;SDS011;64204;13.766;100.702;2024-03-23T09:50:38;19.48;;;9.02;;
73130;SDS011;64204;13.766;100.702;2024-03-23T09:53:09;16.67;;;8.85;;
73130;SDS011;64204;13.766;100.702;2024-03-23T09:55:37;18.48;;;9.45;;
73130;SDS011;64204;13.766;100.702;2024-03-23T09:58:04;20.05;;;9.15;;
73130;SDS011;64204;13.766;100.702;2024-03-23T10:00:31;18.05;;;8.57;;
73130;SDS011;64204;13.766;100.702;2024-03-23T10:02:59;16.98;;;8.77;;
73130;SDS011;64204;13.766;100.702;2024-03-23T10:05:29;18.75;;;9.45;;
73130;SDS011;64204;13.766;100.702;2024-03-23T10:10:40;19.35;;;9.10;;
73130;SDS011;64204;13.766;100.702;2024-03-23T10:13:07;21.23;;;10.00;;
73130;SDS011;64204;13.766;100.702;2024-03-23T10:15:34;21.00;;;10.10;;
73130;SDS011;64204;13.766;100.702;2024-03-23T10:18:34;22.65;;;9.68;;
73130;SDS011;64204;13.766;100.702;2024-03-23T10:23:34;21.83;;;9.82;;
73130;SDS011;64204;13.766;100.702;2024-03-23T10:26:14;23.00;;;10.02;;
73130;SDS011;64204;13.766;100.702;2024-03-23T10:29:00;18.13;;;9.10;;
73130;SDS011;64204;13.766;100.702;2024-03-23T10:31:27;18.13;;;9.93;;
73130;SDS011;64204;13.766;100.702;2024-03-23T10:33:57;21.13;;;9.65;;
73130;SDS011;64204;13.766;100.702;2024-03-23T10:36:24;23.52;;;10.05;;
73130;SDS011;64204;13.766;100.702;2024-03-23T10:38:54;20.10;;;9.75;;
73130;SDS011;64204;13.766;100.702;2024-03-23T10:41:20;14.82;;;8.82;;
73130;SDS011;64204;13.766;100.702;2024-03-23T10:43:47;21.52;;;9.57;;
73130;SDS011;64204;13.766;100.702;2024-03-23T10:46:14;22.38;;;9.20;;
73130;SDS011;64204;13.766;100.702;2024-03-23T10:48:41;19.42;;;9.48;;
73130;SDS011;64204;13.766;100.702;2024-03-23T10:51:08;19.40;;;9.07;;
73130;SDS011;64204;13.766;100.702;2024-03-23T10:53:36;17.85;;;9.57;;
73130;SDS011;64204;13.766;100.702;2024-03-23T10:56:02;18.83;;;9.07;;
73130;SDS011;64204;13.766;100.702;2024-03-23T10:58:40;15.68;;;8.52;;
73130;SDS011;64204;13.766;100.702;2024-03-23T11:01:11;19.67;;;9.13;;
73130;SDS011;64204;13.766;100.702;2024-03-23T11:03:39;22.95;;;9.73;;
73130;SDS011;64204;13.766;100.702;2024-03-23T11:06:10;19.85;;;8.82;;
73130;SDS011;64204;13.766;100.702;2024-03-23T11:08:39;19.15;;;9.05;;
73130;SDS011;64204;13.766;100.702;2024-03-23T11:11:13;19.00;;;9.32;;
73130;SDS011;64204;13.766;100.702;2024-03-23T11:13:44;18.75;;;8.95;;
73130;SDS011;64204;13.766;100.702;2024-03-23T11:16:13;17.13;;;9.00;;
73130;SDS011;64204;13.766;100.702;2024-03-23T11:18:40;19.80;;;9.40;;
73130;SDS011;64204;13.766;100.702;2024-03-23T11:21:07;19.73;;;8.90;;
73130;SDS011;64204;13.766;100.702;2024-03-23T11:23:37;20.15;;;9.30;;
73130;SDS011;64204;13.766;100.702;2024-03-23T11:26:06;21.30;;;9.20;;
73130;SDS011;64204;13.766;100.702;2024-03-23T11:28:33;16.67;;;9.45;;
73130;SDS011;64204;13.766;100.702;2024-03-23T11:30:59;18.15;;;8.85;;
73130;SDS011;64204;13.766;100.702;2024-03-23T11:33:26;15.48;;;8.20;;
73130;SDS011;64204;13.766;100.702;2024-03-23T11:35:54;21.55;;;9.27;;
73130;SDS011;64204;13.766;100.702;2024-03-23T11:38:20;15.88;;;8.30;;
73130;SDS011;64204;13.766;100.702;2024-03-23T11:40:50;15.02;;;8.68;;
73130;SDS011;64204;13.766;100.702;2024-03-23T11:43:20;20.42;;;9.38;;
73130;SDS011;64204;13.766;100.702;2024-03-23T11:45:48;19.75;;;8.85;;
73130;SDS011;64204;13.766;100.702;2024-03-23T11:48:19;19.80;;;9.13;;
73130;SDS011;64204;13.766;100.702;2024-03-23T11:50:56;19.98;;;9.23;;
73130;SDS011;64204;13.766;100.702;2024-03-23T11:53:25;19.02;;;8.55;;
73130;SDS011;64204;13.766;100.702;2024-03-23T11:55:56;21.10;;;9.00;;
73130;SDS011;64204;13.766;100.702;2024-03-23T11:58:24;14.60;;;7.78;;
73130;SDS011;64204;13.766;100.702;2024-03-23T12:01:03;16.77;;;7.60;;
73130;SDS011;64204;13.766;100.702;2024-03-23T12:03:31;18.85;;;9.02;;
73130;SDS011;64204;13.766;100.702;2024-03-23T12:06:02;17.58;;;9.20;;
73130;SDS011;64204;13.766;100.702;2024-03-23T12:08:29;19.75;;;8.45;;
73130;SDS011;64204;13.766;100.702;2024-03-23T12:11:09;18.27;;;8.30;;
73130;SDS011;64204;13.766;100.702;2024-03-23T12:13:44;18.55;;;8.73;;
73130;SDS011;64204;13.766;100.702;2024-03-23T12:18:46;18.48;;;9.20;;
73130;SDS011;64204;13.766;100.702;2024-03-23T12:21:14;17.83;;;8.85;;
73130;SDS011;64204;13.766;100.702;2024-03-23T12:23:44;19.00;;;9.32;;
73130;SDS011;64204;13.766;100.702;2024-03-23T12:26:12;18.45;;;8.68;;
73130;SDS011;64204;13.766;100.702;2024-03-23T12:28:38;16.33;;;8.18;;
73130;SDS011;64204;13.766;100.702;2024-03-23T12:31:05;15.65;;;8.30;;
73130;SDS011;64204;13.766;100.702;2024-03-23T12:33:31;17.98;;;8.20;;
73130;SDS011;64204;13.766;100.702;2024-03-23T12:35:58;18.10;;;8.10;;
73130;SDS011;64204;13.766;100.702;2024-03-23T12:38:24;16.15;;;8.05;;
73130;SDS011;64204;13.766;100.702;2024-03-23T12:40:51;17.33;;;8.40;;
73130;SDS011;64204;13.766;100.702;2024-03-23T12:43:18;14.73;;;7.25;;
73130;SDS011;64204;13.766;100.702;2024-03-23T12:45:48;19.33;;;8.30;;
73130;SDS011;64204;13.766;100.702;2024-03-23T12:48:15;20.67;;;8.02;;
73130;SDS011;64204;13.766;100.702;2024-03-23T12:50:42;17.83;;;7.78;;
73130;SDS011;64204;13.766;100.702;2024-03-23T12:53:08;15.95;;;7.63;;
73130;SDS011;64204;13.766;100.702;2024-03-23T12:55:35;15.07;;;6.85;;
73130;SDS011;64204;13.766;100.702;2024-03-23T12:58:02;19.95;;;7.90;;
73130;SDS011;64204;13.766;100.702;2024-03-23T13:00:28;20.67;;;7.65;;
73130;SDS011;64204;13.766;100.702;2024-03-23T13:02:55;19.50;;;8.23;;
73130;SDS011;64204;13.766;100.702;2024-03-23T13:05:21;16.65;;;8.30;;
73130;SDS011;64204;13.766;100.702;2024-03-23T13:07:48;16.00;;;8.20;;
73130;SDS011;64204;13.766;100.702;2024-03-23T13:10:14;18.23;;;8.90;;
73130;SDS011;64204;13.766;100.702;2024-03-23T13:12:41;14.68;;;8.00;;
73130;SDS011;64204;13.766;100.702;2024-03-23T13:15:08;22.90;;;8.27;;
73130;SDS011;64204;13.766;100.702;2024-03-23T13:17:36;20.05;;;8.93;;
73130;SDS011;64204;13.766;100.702;2024-03-23T13:20:02;18.08;;;9.07;;
73130;SDS011;64204;13.766;100.702;2024-03-23T13:22:29;16.83;;;7.97;;
73130;SDS011;64204;13.766;100.702;2024-03-23T13:24:56;18.60;;;8.65;;
73130;SDS011;64204;13.766;100.702;2024-03-23T13:27:22;16.55;;;8.00;;
73130;SDS011;64204;13.766;100.702;2024-03-23T13:29:49;17.50;;;8.38;;
73130;SDS011;64204;13.766;100.702;2024-03-23T13:32:15;23.48;;;9.13;;
73130;SDS011;64204;13.766;100.702;2024-03-23T13:34:42;18.67;;;9.60;;
73130;SDS011;64204;13.766;100.702;2024-03-23T13:37:08;15.13;;;8.15;;
73130;SDS011;64204;13.766;100.702;2024-03-23T13:39:35;23.45;;;9.57;;
73130;SDS011;64204;13.766;100.702;2024-03-23T13:42:01;18.98;;;9.10;;
73130;SDS011;64204;13.766;100.702;2024-03-23T13:44:29;20.30;;;9.55;;
73130;SDS011;64204;13.766;100.702;2024-03-23T13:46:55;16.83;;;8.90;;
73130;SDS011;64204;13.766;100.702;2024-03-23T13:49:25;20.83;;;9.23;;
73130;SDS011;64204;13.766;100.702;2024-03-23T13:51:53;17.38;;;8.77;;
73130;SDS011;64204;13.766;100.702;2024-03-23T13:54:24;18.17;;;9.00;;
73130;SDS011;64204;13.766;100.702;2024-03-23T13:56:51;19.20;;;8.45;;
73130;SDS011;64204;13.766;100.702;2024-03-23T13:59:19;21.80;;;9.60;;
73130;SDS011;64204;13.766;100.702;2024-03-23T14:01:48;18.13;;;8.63;;
73130;SDS011;64204;13.766;100.702;2024-03-23T14:04:15;18.75;;;8.85;;
73130;SDS011;64204;13.766;100.702;2024-03-23T14:06:48;15.85;;;9.02;;
73130;SDS011;64204;13.766;100.702;2024-03-23T14:09:15;21.60;;;9.38;;
73130;SDS011;64204;13.766;100.702;2024-03-23T14:11:46;18.70;;;9.45;;
73130;SDS011;64204;13.766;100.702;2024-03-23T14:14:13;18.25;;;8.88;;
73130;SDS011;64204;13.766;100.702;2024-03-23T14:16:43;19.13;;;9.32;;
73130;SDS011;64204;13.766;100.702;2024-03-23T14:19:10;20.02;;;10.10;;
73130;SDS011;64204;13.766;100.702;2024-03-23T14:21:36;18.73;;;9.90;;
73130;SDS011;64204;13.766;100.702;2024-03-23T14:24:03;19.55;;;9.60;;
73130;SDS011;64204;13.766;100.702;2024-03-23T14:26:30;19.65;;;8.98;;
73130;SDS011;64204;13.766;100.702;2024-03-23T14:28:57;15.93;;;9.68;;
73130;SDS011;64204;13.766;100.702;2024-03-23T14:31:23;18.85;;;9.15;;
73130;SDS011;64204;13.766;100.702;2024-03-23T14:33:50;18.75;;;9.63;;
73130;SDS011;64204;13.766;100.702;2024-03-23T14:36:17;16.80;;;9.05;;
73130;SDS011;64204;13.766;100.702;2024-03-23T14:38:49;14.35;;;8.77;;
73130;SDS011;64204;13.766;100.702;2024-03-23T14:41:17;20.15;;;9.35;;
73130;SDS011;64204;13.766;100.702;2024-03-23T14:43:44;19.60;;;9.07;;
73130;SDS011;64204;13.766;100.702;2024-03-23T14:46:14;18.67;;;9.18;;
73130;SDS011;64204;13.766;100.702;2024-03-23T14:48:44;17.50;;;8.93;;
73130;SDS011;64204;13.766;100.702;2024-03-23T14:51:11;17.38;;;8.82;;
73130;SDS011;64204;13.766;100.702;2024-03-23T14:53:39;18.33;;;9.23;;
73130;SDS011;64204;13.766;100.702;2024-03-23T14:56:07;18.92;;;9.48;;
73130;SDS011;64204;13.766;100.702;2024-03-23T14:58:35;17.92;;;9.35;;
73130;SDS011;64204;13.766;100.702;2024-03-23T15:01:02;20.02;;;9.30;;
73130;SDS011;64204;13.766;100.702;2024-03-23T15:03:36;14.93;;;8.80;;
73130;SDS011;64204;13.766;100.702;2024-03-23T15:06:05;17.58;;;9.18;;
73130;SDS011;64204;13.766;100.702;2024-03-23T15:08:34;17.85;;;8.52;;
73130;SDS011;64204;13.766;100.702;2024-03-23T15:11:02;14.45;;;9.23;;
73130;SDS011;64204;13.766;100.702;2024-03-23T15:13:34;19.20;;;9.25;;
73130;SDS011;64204;13.766;100.702;2024-03-23T15:16:04;17.40;;;8.82;;
73130;SDS011;64204;13.766;100.702;2024-03-23T15:18:31;15.07;;;9.23;;
73130;SDS011;64204;13.766;100.702;2024-03-23T15:20:59;19.67;;;9.90;;
73130;SDS011;64204;13.766;100.702;2024-03-23T15:23:31;16.05;;;9.43;;